sensor_id;sensor_type;location;lat;lon;timestamp;P1;durP1;ratioP1;P2;durP2;ratioP2
13026;SDS011;6580;42.680;23.324;2023-09-07T00:01:51;7.88;;;6.70;;
13026;SDS011;6580;42.680;23.324;2023-09-07T00:04:37;8.50;;;7.57;;
13026;SDS011;6580;42.680;23.324;2023-09-07T00:07:25;8.10;;;7.35;;
13026;SDS011;6580;42.680;23.324;2023-09-07T00:10:10;8.48;;;7.68;;
13026;SDS011;6580;42.680;23.324;2023-09-07T00:12:56;8.70;;;7.45;;
13026;SDS011;6580;42.680;23.324;2023-09-07T00:15:43;7.55;;;6.85;;
13026;SDS011;6580;42.680;23.324;2023-09-07T00:18:30;8.60;;;7.80;;
13026;SDS011;6580;42.680;23.324;2023-09-07T00:21:16;8.02;;;7.32;;
13026;SDS011;6580;42.680;23.324;2023-09-07T00:24:03;9.00;;;8.18;;
13026;SDS011;6580;42.680;23.324;2023-09-07T00:26:51;8.48;;;7.68;;
13026;SDS011;6580;42.680;23.324;2023-09-07T00:29:38;8.30;;;7.50;;
13026;SDS011;6580;42.680;23.324;2023-09-07T00:32:25;8.43;;;7.40;;
13026;SDS011;6580;42.680;23.324;2023-09-07T00:35:11;8.35;;;7.20;;
13026;SDS011;6580;42.680;23.324;2023-09-07T00:37:56;8.90;;;8.00;;
13026;SDS011;6580;42.680;23.324;2023-09-07T00:40:45;9.43;;;8.52;;
13026;SDS011;6580;42.680;23.324;2023-09-07T00:43:31;8.80;;;7.88;;
13026;SDS011;6580;42.680;23.324;2023-09-07T00:46:16;7.65;;;6.95;;
13026;SDS011;6580;42.680;23.324;2023-09-07T00:49:02;8.35;;;7.15;;
13026;SDS011;6580;42.680;23.324;2023-09-07T00:51:48;8.93;;;7.97;;
13026;SDS011;6580;42.680;23.324;2023-09-07T00:54:34;9.40;;;8.13;;
13026;SDS011;6580;42.680;23.324;2023-09-07T00:57:24;9.30;;;8.00;;
13026;SDS011;6580;42.680;23.324;2023-09-07T01:00:10;8.57;;;7.68;;
13026;SDS011;6580;42.680;23.324;2023-09-07T01:02:56;8.88;;;8.13;;
13026;SDS011;6580;42.680;23.324;2023-09-07T01:05:46;9.23;;;8.15;;
13026;SDS011;6580;42.680;23.324;2023-09-07T01:08:39;9.27;;;8.38;;
13026;SDS011;6580;42.680;23.324;2023-09-07T01:11:35;9.38;;;8.48;;
13026;SDS011;6580;42.680;23.324;2023-09-07T01:14:23;9.57;;;8.57;;
13026;SDS011;6580;42.680;23.324;2023-09-07T01:17:08;9.10;;;8.30;;
13026;SDS011;6580;42.680;23.324;2023-09-07T01:19:56;9.40;;;8.60;;
13026;SDS011;6580;42.680;23.324;2023-09-07T01:22:50;10.45;;;9.15;;
13026;SDS011;6580;42.680;23.324;2023-09-07T01:25:36;10.23;;;9.13;;
13026;SDS011;6580;42.680;23.324;2023-09-07T01:28:22;10.38;;;9.27;;
13026;SDS011;6580;42.680;23.324;2023-09-07T01:31:10;9.70;;;8.70;;
13026;SDS011;6580;42.680;23.324;2023-09-07T01:33:56;8.82;;;8.02;;
13026;SDS011;6580;42.680;23.324;2023-09-07T01:36:44;10.27;;;9.07;;
13026;SDS011;6580;42.680;23.324;2023-09-07T01:39:33;10.02;;;8.68;;
13026;SDS011;6580;42.680;23.324;2023-09-07T01:42:19;10.43;;;9.30;;
13026;SDS011;6580;42.680;23.324;2023-09-07T01:45:08;9.43;;;8.52;;
13026;SDS011;6580;42.680;23.324;2023-09-07T01:47:55;11.55;;;9.82;;
13026;SDS011;6580;42.680;23.324;2023-09-07T01:50:41;10.15;;;9.15;;
13026;SDS011;6580;42.680;23.324;2023-09-07T01:53:27;10.65;;;8.95;;
13026;SDS011;6580;42.680;23.324;2023-09-07T01:56:16;10.60;;;9.57;;
13026;SDS011;6580;42.680;23.324;2023-09-07T01:59:03;10.25;;;9.32;;
13026;SDS011;6580;42.680;23.324;2023-09-07T02:01:49;10.52;;;9.52;;
13026;SDS011;6580;42.680;23.324;2023-09-07T02:04:34;11.27;;;10.05;;
13026;SDS011;6580;42.680;23.324;2023-09-07T02:07:20;10.48;;;9.45;;
13026;SDS011;6580;42.680;23.324;2023-09-07T02:10:06;11.13;;;10.00;;
13026;SDS011;6580;42.680;23.324;2023-09-07T02:12:56;11.77;;;10.15;;
13026;SDS011;6580;42.680;23.324;2023-09-07T02:15:41;10.60;;;9.60;;
13026;SDS011;6580;42.680;23.324;2023-09-07T02:18:27;11.50;;;10.32;;
13026;SDS011;6580;42.680;23.324;2023-09-07T02:21:12;12.43;;;11.25;;
13026;SDS011;6580;42.680;23.324;2023-09-07T02:23:58;12.63;;;11.32;;
13026;SDS011;6580;42.680;23.324;2023-09-07T02:26:44;12.15;;;10.57;;
13026;SDS011;6580;42.680;23.324;2023-09-07T02:29:31;12.60;;;11.30;;
13026;SDS011;6580;42.680;23.324;2023-09-07T02:32:17;12.02;;;10.82;;
13026;SDS011;6580;42.680;23.324;2023-09-07T02:35:02;12.43;;;10.70;;
13026;SDS011;6580;42.680;23.324;2023-09-07T02:37:49;12.18;;;10.93;;
13026;SDS011;6580;42.680;23.324;2023-09-07T02:40:39;13.40;;;11.15;;
13026;SDS011;6580;42.680;23.324;2023-09-07T02:43:25;11.88;;;10.68;;
13026;SDS011;6580;42.680;23.324;2023-09-07T02:46:12;12.02;;;10.80;;
13026;SDS011;6580;42.680;23.324;2023-09-07T02:48:57;12.98;;;11.40;;
13026;SDS011;6580;42.680;23.324;2023-09-07T02:51:44;12.40;;;11.10;;
13026;SDS011;6580;42.680;23.324;2023-09-07T02:54:30;12.00;;;10.77;;
13026;SDS011;6580;42.680;23.324;2023-09-07T02:57:15;13.00;;;11.70;;
13026;SDS011;6580;42.680;23.324;2023-09-07T03:00:00;12.52;;;10.93;;
13026;SDS011;6580;42.680;23.324;2023-09-07T03:02:54;13.13;;;11.57;;
13026;SDS011;6580;42.680;23.324;2023-09-07T03:05:39;12.43;;;11.18;;
13026;SDS011;6580;42.680;23.324;2023-09-07T03:08:25;12.75;;;11.48;;
13026;SDS011;6580;42.680;23.324;2023-09-07T03:11:11;13.27;;;11.98;;
13026;SDS011;6580;42.680;23.324;2023-09-07T03:17:33;13.30;;;11.95;;
13026;SDS011;6580;42.680;23.324;2023-09-07T03:20:22;15.02;;;12.95;;
13026;SDS011;6580;42.680;23.324;2023-09-07T03:23:10;13.18;;;11.77;;
13026;SDS011;6580;42.680;23.324;2023-09-07T03:26:43;13.88;;;12.40;;
13026;SDS011;6580;42.680;23.324;2023-09-07T03:29:29;14.93;;;13.13;;
13026;SDS011;6580;42.680;23.324;2023-09-07T03:32:16;13.68;;;12.13;;
13026;SDS011;6580;42.680;23.324;2023-09-07T03:35:02;14.05;;;11.90;;
13026;SDS011;6580;42.680;23.324;2023-09-07T03:37:52;17.75;;;13.52;;
13026;SDS011;6580;42.680;23.324;2023-09-07T03:40:37;16.00;;;13.48;;
13026;SDS011;6580;42.680;23.324;2023-09-07T03:43:24;15.95;;;12.82;;
13026;SDS011;6580;42.680;23.324;2023-09-07T03:46:09;15.35;;;13.75;;
13026;SDS011;6580;42.680;23.324;2023-09-07T03:48:56;15.27;;;13.73;;
13026;SDS011;6580;42.680;23.324;2023-09-07T03:51:42;18.25;;;13.63;;
13026;SDS011;6580;42.680;23.324;2023-09-07T03:54:31;16.30;;;14.60;;
13026;SDS011;6580;42.680;23.324;2023-09-07T03:57:17;15.32;;;13.57;;
13026;SDS011;6580;42.680;23.324;2023-09-07T04:00:03;16.67;;;14.82;;
13026;SDS011;6580;42.680;23.324;2023-09-07T04:02:52;15.57;;;13.77;;
13026;SDS011;6580;42.680;23.324;2023-09-07T04:05:38;17.60;;;14.13;;
13026;SDS011;6580;42.680;23.324;2023-09-07T04:08:24;17.75;;;15.85;;
13026;SDS011;6580;42.680;23.324;2023-09-07T04:11:14;17.55;;;14.13;;
13026;SDS011;6580;42.680;23.324;2023-09-07T04:14:00;19.05;;;15.77;;
13026;SDS011;6580;42.680;23.324;2023-09-07T04:16:46;15.95;;;14.25;;
13026;SDS011;6580;42.680;23.324;2023-09-07T04:19:36;16.15;;;14.15;;
13026;SDS011;6580;42.680;23.324;2023-09-07T04:22:24;18.08;;;15.38;;
13026;SDS011;6580;42.680;23.324;2023-09-07T04:25:09;19.02;;;15.63;;
13026;SDS011;6580;42.680;23.324;2023-09-07T04:27:57;16.13;;;14.48;;
13026;SDS011;6580;42.680;23.324;2023-09-07T04:30:42;15.38;;;13.75;;
13026;SDS011;6580;42.680;23.324;2023-09-07T04:33:31;16.85;;;15.15;;
13026;SDS011;6580;42.680;23.324;2023-09-07T04:36:17;15.25;;;13.63;;
13026;SDS011;6580;42.680;23.324;2023-09-07T04:39:02;15.70;;;14.00;;
13026;SDS011;6580;42.680;23.324;2023-09-07T04:41:48;15.63;;;14.10;;
13026;SDS011;6580;42.680;23.324;2023-09-07T04:44:37;16.25;;;14.50;;
13026;SDS011;6580;42.680;23.324;2023-09-07T04:47:23;16.33;;;14.40;;
13026;SDS011;6580;42.680;23.324;2023-09-07T04:50:09;16.13;;;14.43;;
13026;SDS011;6580;42.680;23.324;2023-09-07T04:52:55;16.85;;;13.57;;
13026;SDS011;6580;42.680;23.324;2023-09-07T05:05:32;15.02;;;13.15;;
13026;SDS011;6580;42.680;23.324;2023-09-07T05:08:17;15.23;;;13.73;;
13026;SDS011;6580;42.680;23.324;2023-09-07T05:11:04;15.50;;;13.82;;
13026;SDS011;6580;42.680;23.324;2023-09-07T05:13:49;14.88;;;13.38;;
13026;SDS011;6580;42.680;23.324;2023-09-07T05:16:35;14.98;;;13.35;;
13026;SDS011;6580;42.680;23.324;2023-09-07T05:19:22;16.75;;;14.75;;
13026;SDS011;6580;42.680;23.324;2023-09-07T05:22:08;15.07;;;13.00;;
13026;SDS011;6580;42.680;23.324;2023-09-07T05:24:55;16.13;;;14.02;;
13026;SDS011;6580;42.680;23.324;2023-09-07T05:27:41;15.45;;;13.70;;
13026;SDS011;6580;42.680;23.324;2023-09-07T05:30:27;14.90;;;13.30;;
13026;SDS011;6580;42.680;23.324;2023-09-07T05:33:13;15.18;;;13.55;;
13026;SDS011;6580;42.680;23.324;2023-09-07T05:36:02;14.02;;;12.40;;
13026;SDS011;6580;42.680;23.324;2023-09-07T05:38:49;14.60;;;13.20;;
13026;SDS011;6580;42.680;23.324;2023-09-07T05:41:36;16.88;;;13.10;;
13026;SDS011;6580;42.680;23.324;2023-09-07T05:44:22;14.75;;;12.45;;
13026;SDS011;6580;42.680;23.324;2023-09-07T05:47:08;14.40;;;12.82;;
13026;SDS011;6580;42.680;23.324;2023-09-07T05:49:55;13.23;;;11.82;;
13026;SDS011;6580;42.680;23.324;2023-09-07T05:52:42;13.40;;;12.10;;
13026;SDS011;6580;42.680;23.324;2023-09-07T05:55:27;12.63;;;11.43;;
13026;SDS011;6580;42.680;23.324;2023-09-07T05:58:16;12.10;;;10.90;;
13026;SDS011;6580;42.680;23.324;2023-09-07T06:01:02;13.40;;;11.10;;
13026;SDS011;6580;42.680;23.324;2023-09-07T06:03:49;13.18;;;11.77;;
13026;SDS011;6580;42.680;23.324;2023-09-07T06:06:35;12.43;;;10.70;;
13026;SDS011;6580;42.680;23.324;2023-09-07T06:09:24;13.13;;;11.70;;
13026;SDS011;6580;42.680;23.324;2023-09-07T06:12:09;11.43;;;10.32;;
13026;SDS011;6580;42.680;23.324;2023-09-07T06:14:54;12.70;;;10.13;;
13026;SDS011;6580;42.680;23.324;2023-09-07T06:17:40;11.52;;;9.88;;
13026;SDS011;6580;42.680;23.324;2023-09-07T06:20:26;11.32;;;9.90;;
13026;SDS011;6580;42.680;23.324;2023-09-07T06:23:12;11.15;;;9.13;;
13026;SDS011;6580;42.680;23.324;2023-09-07T06:26:00;10.60;;;8.82;;
13026;SDS011;6580;42.680;23.324;2023-09-07T06:28:46;12.32;;;10.95;;
13026;SDS011;6580;42.680;23.324;2023-09-07T06:31:32;10.13;;;8.77;;
13026;SDS011;6580;42.680;23.324;2023-09-07T06:34:18;9.38;;;8.48;;
13026;SDS011;6580;42.680;23.324;2023-09-07T06:37:04;9.30;;;8.45;;
13026;SDS011;6580;42.680;23.324;2023-09-07T06:39:50;8.90;;;7.90;;
13026;SDS011;6580;42.680;23.324;2023-09-07T06:42:36;10.85;;;8.52;;
13026;SDS011;6580;42.680;23.324;2023-09-07T06:45:22;8.45;;;7.65;;
13026;SDS011;6580;42.680;23.324;2023-09-07T06:48:08;8.73;;;7.68;;
13026;SDS011;6580;42.680;23.324;2023-09-07T06:50:53;8.07;;;7.28;;
13026;SDS011;6580;42.680;23.324;2023-09-07T06:53:39;9.02;;;7.25;;
13026;SDS011;6580;42.680;23.324;2023-09-07T06:56:26;8.50;;;7.50;;
13026;SDS011;6580;42.680;23.324;2023-09-07T06:59:15;8.43;;;6.88;;
13026;SDS011;6580;42.680;23.324;2023-09-07T07:02:02;7.65;;;6.95;;
13026;SDS011;6580;42.680;23.324;2023-09-07T07:04:48;7.75;;;6.95;;
13026;SDS011;6580;42.680;23.324;2023-09-07T07:07:34;9.55;;;6.85;;
13026;SDS011;6580;42.680;23.324;2023-09-07T07:10:20;7.40;;;6.57;;
13026;SDS011;6580;42.680;23.324;2023-09-07T07:13:08;8.15;;;6.70;;
13026;SDS011;6580;42.680;23.324;2023-09-07T07:16:00;8.98;;;6.88;;
13026;SDS011;6580;42.680;23.324;2023-09-07T07:18:46;7.40;;;6.70;;
13026;SDS011;6580;42.680;23.324;2023-09-07T07:21:32;7.32;;;6.63;;
13026;SDS011;6580;42.680;23.324;2023-09-07T07:24:17;8.40;;;6.78;;
13026;SDS011;6580;42.680;23.324;2023-09-07T07:27:03;8.32;;;7.47;;
13026;SDS011;6580;42.680;23.324;2023-09-07T07:29:50;7.40;;;6.70;;
13026;SDS011;6580;42.680;23.324;2023-09-07T07:32:45;8.18;;;6.40;;
13026;SDS011;6580;42.680;23.324;2023-09-07T07:35:31;6.90;;;6.15;;
13026;SDS011;6580;42.680;23.324;2023-09-07T07:38:18;7.88;;;7.07;;
13026;SDS011;6580;42.680;23.324;2023-09-07T07:41:05;7.15;;;6.45;;
13026;SDS011;6580;42.680;23.324;2023-09-07T07:43:52;12.23;;;7.07;;
13026;SDS011;6580;42.680;23.324;2023-09-07T07:46:39;6.38;;;5.78;;
13026;SDS011;6580;42.680;23.324;2023-09-07T07:49:29;11.32;;;6.32;;
13026;SDS011;6580;42.680;23.324;2023-09-07T07:52:18;7.03;;;5.88;;
13026;SDS011;6580;42.680;23.324;2023-09-07T07:55:05;5.72;;;5.22;;
13026;SDS011;6580;42.680;23.324;2023-09-07T07:57:51;5.82;;;5.22;;
13026;SDS011;6580;42.680;23.324;2023-09-07T08:00:37;6.38;;;5.72;;
13026;SDS011;6580;42.680;23.324;2023-09-07T08:03:24;8.07;;;6.45;;
13026;SDS011;6580;42.680;23.324;2023-09-07T08:06:17;6.32;;;5.47;;
13026;SDS011;6580;42.680;23.324;2023-09-07T08:09:03;6.95;;;6.07;;
13026;SDS011;6580;42.680;23.324;2023-09-07T08:11:49;7.57;;;6.35;;
13026;SDS011;6580;42.680;23.324;2023-09-07T08:14:35;6.65;;;6.05;;
13026;SDS011;6580;42.680;23.324;2023-09-07T08:17:22;6.97;;;6.38;;
13026;SDS011;6580;42.680;23.324;2023-09-07T08:20:10;6.80;;;6.03;;
13026;SDS011;6580;42.680;23.324;2023-09-07T08:22:57;6.28;;;5.78;;
13026;SDS011;6580;42.680;23.324;2023-09-07T08:25:42;6.85;;;6.15;;
13026;SDS011;6580;42.680;23.324;2023-09-07T08:28:30;8.30;;;7.43;;
13026;SDS011;6580;42.680;23.324;2023-09-07T08:31:17;8.80;;;7.32;;
13026;SDS011;6580;42.680;23.324;2023-09-07T08:34:06;8.15;;;6.22;;
13026;SDS011;6580;42.680;23.324;2023-09-07T08:36:53;8.27;;;6.45;;
13026;SDS011;6580;42.680;23.324;2023-09-07T08:39:44;6.85;;;6.18;;
13026;SDS011;6580;42.680;23.324;2023-09-07T08:42:29;7.20;;;6.15;;
13026;SDS011;6580;42.680;23.324;2023-09-07T08:45:15;6.10;;;5.50;;
13026;SDS011;6580;42.680;23.324;2023-09-07T08:48:06;8.45;;;7.75;;
13026;SDS011;6580;42.680;23.324;2023-09-07T08:50:52;6.85;;;6.10;;
13026;SDS011;6580;42.680;23.324;2023-09-07T08:53:39;6.40;;;5.80;;
13026;SDS011;6580;42.680;23.324;2023-09-07T08:56:26;6.22;;;5.60;;
13026;SDS011;6580;42.680;23.324;2023-09-07T08:59:12;12.50;;;10.25;;
13026;SDS011;6580;42.680;23.324;2023-09-07T09:01:57;7.47;;;6.55;;
13026;SDS011;6580;42.680;23.324;2023-09-07T09:04:43;5.72;;;5.05;;
13026;SDS011;6580;42.680;23.324;2023-09-07T09:07:28;5.63;;;5.10;;
13026;SDS011;6580;42.680;23.324;2023-09-07T09:10:14;6.18;;;5.30;;
13026;SDS011;6580;42.680;23.324;2023-09-07T09:13:00;6.00;;;4.93;;
13026;SDS011;6580;42.680;23.324;2023-09-07T09:15:47;5.35;;;4.93;;
13026;SDS011;6580;42.680;23.324;2023-09-07T09:18:33;5.10;;;4.70;;
13026;SDS011;6580;42.680;23.324;2023-09-07T09:21:18;6.25;;;5.75;;
13026;SDS011;6580;42.680;23.324;2023-09-07T09:24:08;6.93;;;5.40;;
13026;SDS011;6580;42.680;23.324;2023-09-07T09:26:57;5.88;;;5.07;;
13026;SDS011;6580;42.680;23.324;2023-09-07T09:29:45;5.57;;;5.07;;
13026;SDS011;6580;42.680;23.324;2023-09-07T09:32:35;4.75;;;4.35;;
13026;SDS011;6580;42.680;23.324;2023-09-07T09:35:21;7.28;;;6.57;;
13026;SDS011;6580;42.680;23.324;2023-09-07T09:38:08;5.30;;;4.65;;
13026;SDS011;6580;42.680;23.324;2023-09-07T09:40:54;4.95;;;4.55;;
13026;SDS011;6580;42.680;23.324;2023-09-07T09:43:40;5.65;;;5.13;;
13026;SDS011;6580;42.680;23.324;2023-09-07T09:46:27;5.15;;;4.65;;
13026;SDS011;6580;42.680;23.324;2023-09-07T09:49:16;5.78;;;5.28;;
13026;SDS011;6580;42.680;23.324;2023-09-07T09:52:06;7.15;;;5.07;;
13026;SDS011;6580;42.680;23.324;2023-09-07T09:54:52;4.82;;;4.40;;
13026;SDS011;6580;42.680;23.324;2023-09-07T09:57:39;6.38;;;5.25;;
13026;SDS011;6580;42.680;23.324;2023-09-07T10:00:27;5.07;;;4.60;;
13026;SDS011;6580;42.680;23.324;2023-09-07T10:03:15;4.63;;;4.20;;
13026;SDS011;6580;42.680;23.324;2023-09-07T10:06:07;7.18;;;5.55;;
13026;SDS011;6580;42.680;23.324;2023-09-07T10:08:57;4.90;;;4.50;;
13026;SDS011;6580;42.680;23.324;2023-09-07T10:11:50;5.18;;;4.68;;
13026;SDS011;6580;42.680;23.324;2023-09-07T10:14:40;4.63;;;4.22;;
13026;SDS011;6580;42.680;23.324;2023-09-07T10:17:28;5.03;;;4.57;;
13026;SDS011;6580;42.680;23.324;2023-09-07T10:20:16;5.25;;;4.75;;
13026;SDS011;6580;42.680;23.324;2023-09-07T10:23:08;6.05;;;4.95;;
13026;SDS011;6580;42.680;23.324;2023-09-07T10:25:56;5.10;;;4.70;;
13026;SDS011;6580;42.680;23.324;2023-09-07T10:28:45;5.75;;;5.28;;
13026;SDS011;6580;42.680;23.324;2023-09-07T10:31:31;5.57;;;5.00;;
13026;SDS011;6580;42.680;23.324;2023-09-07T10:37:29;5.40;;;4.90;;
13026;SDS011;6580;42.680;23.324;2023-09-07T10:40:19;5.68;;;5.03;;
13026;SDS011;6580;42.680;23.324;2023-09-07T10:43:06;5.30;;;4.80;;
13026;SDS011;6580;42.680;23.324;2023-09-07T10:45:52;6.25;;;4.68;;
13026;SDS011;6580;42.680;23.324;2023-09-07T10:48:38;7.10;;;5.13;;
13026;SDS011;6580;42.680;23.324;2023-09-07T10:51:25;5.05;;;4.55;;
13026;SDS011;6580;42.680;23.324;2023-09-07T10:54:15;5.50;;;4.78;;
13026;SDS011;6580;42.680;23.324;2023-09-07T10:57:07;5.15;;;4.65;;
13026;SDS011;6580;42.680;23.324;2023-09-07T10:59:53;5.38;;;4.88;;
13026;SDS011;6580;42.680;23.324;2023-09-07T11:02:38;5.57;;;5.15;;
13026;SDS011;6580;42.680;23.324;2023-09-07T11:05:24;5.75;;;4.68;;
13026;SDS011;6580;42.680;23.324;2023-09-07T11:08:10;5.57;;;5.00;;
13026;SDS011;6580;42.680;23.324;2023-09-07T11:10:57;9.45;;;8.55;;
13026;SDS011;6580;42.680;23.324;2023-09-07T11:13:45;6.13;;;5.10;;
13026;SDS011;6580;42.680;23.324;2023-09-07T11:16:40;5.50;;;5.00;;
13026;SDS011;6580;42.680;23.324;2023-09-07T11:19:41;5.32;;;4.82;;
13026;SDS011;6580;42.680;23.324;2023-09-07T11:22:27;4.95;;;4.45;;
13026;SDS011;6580;42.680;23.324;2023-09-07T11:25:12;4.70;;;4.30;;
13026;SDS011;6580;42.680;23.324;2023-09-07T11:28:08;4.55;;;4.15;;
13026;SDS011;6580;42.680;23.324;2023-09-07T11:31:01;5.15;;;4.72;;
13026;SDS011;6580;42.680;23.324;2023-09-07T11:33:50;5.30;;;4.80;;
13026;SDS011;6580;42.680;23.324;2023-09-07T11:36:36;4.85;;;4.25;;
13026;SDS011;6580;42.680;23.324;2023-09-07T11:39:25;4.97;;;4.57;;
13026;SDS011;6580;42.680;23.324;2023-09-07T11:42:11;4.53;;;4.13;;
13026;SDS011;6580;42.680;23.324;2023-09-07T11:44:59;5.65;;;4.68;;
13026;SDS011;6580;42.680;23.324;2023-09-07T11:47:49;5.53;;;4.38;;
13026;SDS011;6580;42.680;23.324;2023-09-07T11:50:36;5.03;;;4.25;;
13026;SDS011;6580;42.680;23.324;2023-09-07T11:53:24;5.72;;;4.20;;
13026;SDS011;6580;42.680;23.324;2023-09-07T11:56:16;5.47;;;4.80;;
13026;SDS011;6580;42.680;23.324;2023-09-07T11:59:02;10.48;;;9.45;;
13026;SDS011;6580;42.680;23.324;2023-09-07T12:01:49;6.63;;;5.32;;
13026;SDS011;6580;42.680;23.324;2023-09-07T12:04:35;5.05;;;4.65;;
13026;SDS011;6580;42.680;23.324;2023-09-07T12:07:24;5.55;;;4.40;;
13026;SDS011;6580;42.680;23.324;2023-09-07T12:10:11;6.50;;;4.72;;
13026;SDS011;6580;42.680;23.324;2023-09-07T12:12:57;4.93;;;4.53;;
13026;SDS011;6580;42.680;23.324;2023-09-07T12:15:44;5.10;;;4.10;;
13026;SDS011;6580;42.680;23.324;2023-09-07T12:18:31;6.45;;;5.00;;
13026;SDS011;6580;42.680;23.324;2023-09-07T12:21:19;5.68;;;4.18;;
13026;SDS011;6580;42.680;23.324;2023-09-07T12:24:07;5.40;;;4.90;;
13026;SDS011;6580;42.680;23.324;2023-09-07T12:26:52;6.57;;;4.55;;
13026;SDS011;6580;42.680;23.324;2023-09-07T12:29:39;4.57;;;4.18;;
13026;SDS011;6580;42.680;23.324;2023-09-07T12:32:26;4.30;;;4.00;;
13026;SDS011;6580;42.680;23.324;2023-09-07T12:35:13;4.20;;;3.90;;
13026;SDS011;6580;42.680;23.324;2023-09-07T12:38:04;4.72;;;4.32;;
13026;SDS011;6580;42.680;23.324;2023-09-07T12:41:03;4.78;;;4.38;;
13026;SDS011;6580;42.680;23.324;2023-09-07T12:43:48;4.50;;;4.10;;
13026;SDS011;6580;42.680;23.324;2023-09-07T12:46:51;4.72;;;4.22;;
13026;SDS011;6580;42.680;23.324;2023-09-07T12:49:40;4.43;;;4.13;;
13026;SDS011;6580;42.680;23.324;2023-09-07T12:52:28;4.38;;;3.90;;
13026;SDS011;6580;42.680;23.324;2023-09-07T12:55:13;4.65;;;4.18;;
13026;SDS011;6580;42.680;23.324;2023-09-07T12:58:00;4.53;;;4.13;;
13026;SDS011;6580;42.680;23.324;2023-09-07T13:00:46;5.25;;;4.28;;
13026;SDS011;6580;42.680;23.324;2023-09-07T13:03:35;4.43;;;4.07;;
13026;SDS011;6580;42.680;23.324;2023-09-07T13:06:21;3.85;;;3.53;;
13026;SDS011;6580;42.680;23.324;2023-09-07T13:09:08;4.70;;;4.30;;
13026;SDS011;6580;42.680;23.324;2023-09-07T13:11:55;4.18;;;3.80;;
13026;SDS011;6580;42.680;23.324;2023-09-07T13:14:41;5.85;;;4.20;;
13026;SDS011;6580;42.680;23.324;2023-09-07T13:17:26;4.78;;;4.18;;
13026;SDS011;6580;42.680;23.324;2023-09-07T13:20:12;4.70;;;4.30;;
13026;SDS011;6580;42.680;23.324;2023-09-07T13:22:57;4.13;;;3.80;;
13026;SDS011;6580;42.680;23.324;2023-09-07T13:25:47;4.93;;;4.22;;
13026;SDS011;6580;42.680;23.324;2023-09-07T13:28:33;4.20;;;3.80;;
13026;SDS011;6580;42.680;23.324;2023-09-07T13:31:19;4.15;;;3.85;;
13026;SDS011;6580;42.680;23.324;2023-09-07T13:34:04;3.78;;;3.47;;
13026;SDS011;6580;42.680;23.324;2023-09-07T13:36:50;5.13;;;4.20;;
13026;SDS011;6580;42.680;23.324;2023-09-07T13:39:37;4.00;;;3.70;;
13026;SDS011;6580;42.680;23.324;2023-09-07T13:42:24;5.05;;;4.38;;
13026;SDS011;6580;42.680;23.324;2023-09-07T13:45:10;4.55;;;4.15;;
13026;SDS011;6580;42.680;23.324;2023-09-07T13:47:56;4.85;;;3.88;;
13026;SDS011;6580;42.680;23.324;2023-09-07T13:50:41;5.80;;;4.50;;
13026;SDS011;6580;42.680;23.324;2023-09-07T13:53:27;4.82;;;3.90;;
13026;SDS011;6580;42.680;23.324;2023-09-07T13:56:13;4.80;;;4.35;;
13026;SDS011;6580;42.680;23.324;2023-09-07T13:59:00;4.43;;;4.05;;
13026;SDS011;6580;42.680;23.324;2023-09-07T14:01:45;4.30;;;3.90;;
13026;SDS011;6580;42.680;23.324;2023-09-07T14:04:31;4.57;;;4.18;;
13026;SDS011;6580;42.680;23.324;2023-09-07T14:07:17;4.75;;;4.20;;
13026;SDS011;6580;42.680;23.324;2023-09-07T14:10:04;4.65;;;4.00;;
13026;SDS011;6580;42.680;23.324;2023-09-07T14:12:50;4.45;;;3.92;;
13026;SDS011;6580;42.680;23.324;2023-09-07T14:15:40;4.32;;;3.95;;
13026;SDS011;6580;42.680;23.324;2023-09-07T14:18:26;4.07;;;3.75;;
13026;SDS011;6580;42.680;23.324;2023-09-07T14:21:13;4.80;;;4.30;;
13026;SDS011;6580;42.680;23.324;2023-09-07T14:23:59;6.38;;;4.20;;
13026;SDS011;6580;42.680;23.324;2023-09-07T14:26:47;5.28;;;4.72;;
13026;SDS011;6580;42.680;23.324;2023-09-07T14:29:36;5.00;;;4.53;;
13026;SDS011;6580;42.680;23.324;2023-09-07T14:32:23;5.70;;;4.25;;
13026;SDS011;6580;42.680;23.324;2023-09-07T14:35:08;4.70;;;4.30;;
13026;SDS011;6580;42.680;23.324;2023-09-07T14:37:55;4.88;;;3.95;;
13026;SDS011;6580;42.680;23.324;2023-09-07T14:40:41;6.13;;;4.38;;
13026;SDS011;6580;42.680;23.324;2023-09-07T14:43:28;4.50;;;4.07;;
13026;SDS011;6580;42.680;23.324;2023-09-07T14:46:13;4.25;;;3.95;;
13026;SDS011;6580;42.680;23.324;2023-09-07T14:49:01;4.28;;;3.72;;
13026;SDS011;6580;42.680;23.324;2023-09-07T14:51:47;6.28;;;4.53;;
13026;SDS011;6580;42.680;23.324;2023-09-07T14:54:32;5.10;;;4.53;;
13026;SDS011;6580;42.680;23.324;2023-09-07T14:57:18;5.22;;;4.40;;
13026;SDS011;6580;42.680;23.324;2023-09-07T15:00:04;8.98;;;6.95;;
13026;SDS011;6580;42.680;23.324;2023-09-07T15:02:50;5.05;;;4.53;;
13026;SDS011;6580;42.680;23.324;2023-09-07T15:05:43;4.55;;;4.20;;
13026;SDS011;6580;42.680;23.324;2023-09-07T15:08:28;4.38;;;4.03;;
13026;SDS011;6580;42.680;23.324;2023-09-07T15:11:13;7.28;;;5.25;;
13026;SDS011;6580;42.680;23.324;2023-09-07T15:13:59;4.57;;;4.18;;
13026;SDS011;6580;42.680;23.324;2023-09-07T15:16:46;4.68;;;4.22;;
13026;SDS011;6580;42.680;23.324;2023-09-07T15:19:32;5.38;;;4.22;;
13026;SDS011;6580;42.680;23.324;2023-09-07T15:22:24;5.35;;;4.85;;
13026;SDS011;6580;42.680;23.324;2023-09-07T15:25:10;5.78;;;4.32;;
13026;SDS011;6580;42.680;23.324;2023-09-07T15:27:55;4.50;;;4.03;;
13026;SDS011;6580;42.680;23.324;2023-09-07T15:30:41;5.20;;;4.68;;
13026;SDS011;6580;42.680;23.324;2023-09-07T15:33:28;5.32;;;4.85;;
13026;SDS011;6580;42.680;23.324;2023-09-07T15:36:13;5.32;;;4.32;;
13026;SDS011;6580;42.680;23.324;2023-09-07T15:39:04;4.55;;;4.15;;
13026;SDS011;6580;42.680;23.324;2023-09-07T15:41:50;4.95;;;4.10;;
13026;SDS011;6580;42.680;23.324;2023-09-07T15:44:36;5.20;;;4.20;;
13026;SDS011;6580;42.680;23.324;2023-09-07T15:47:21;5.57;;;4.47;;
13026;SDS011;6580;42.680;23.324;2023-09-07T15:50:07;5.15;;;4.47;;
13026;SDS011;6580;42.680;23.324;2023-09-07T15:52:53;5.45;;;4.18;;
13026;SDS011;6580;42.680;23.324;2023-09-07T15:55:40;5.38;;;4.88;;
13026;SDS011;6580;42.680;23.324;2023-09-07T15:58:26;4.60;;;4.20;;
13026;SDS011;6580;42.680;23.324;2023-09-07T16:01:11;4.97;;;4.53;;
13026;SDS011;6580;42.680;23.324;2023-09-07T16:03:57;6.25;;;4.85;;
13026;SDS011;6580;42.680;23.324;2023-09-07T16:06:43;5.18;;;4.68;;
13026;SDS011;6580;42.680;23.324;2023-09-07T16:09:31;7.22;;;5.00;;
13026;SDS011;6580;42.680;23.324;2023-09-07T16:12:18;6.68;;;4.47;;
13026;SDS011;6580;42.680;23.324;2023-09-07T16:15:04;4.22;;;3.92;;
13026;SDS011;6580;42.680;23.324;2023-09-07T16:17:50;5.07;;;4.20;;
13026;SDS011;6580;42.680;23.324;2023-09-07T16:23:41;6.13;;;4.82;;
13026;SDS011;6580;42.680;23.324;2023-09-07T16:26:28;5.50;;;5.00;;
13026;SDS011;6580;42.680;23.324;2023-09-07T16:29:14;13.40;;;10.77;;
13026;SDS011;6580;42.680;23.324;2023-09-07T16:32:00;5.57;;;5.03;;
13026;SDS011;6580;42.680;23.324;2023-09-07T16:34:45;8.23;;;6.57;;
13026;SDS011;6580;42.680;23.324;2023-09-07T16:37:33;9.93;;;6.15;;
13026;SDS011;6580;42.680;23.324;2023-09-07T16:40:19;9.98;;;8.68;;
13026;SDS011;6580;42.680;23.324;2023-09-07T16:43:04;9.00;;;6.53;;
13026;SDS011;6580;42.680;23.324;2023-09-07T16:45:58;9.27;;;7.07;;
13026;SDS011;6580;42.680;23.324;2023-09-07T16:48:44;6.57;;;5.88;;
13026;SDS011;6580;42.680;23.324;2023-09-07T16:51:30;8.65;;;6.55;;
13026;SDS011;6580;42.680;23.324;2023-09-07T16:54:15;6.35;;;5.75;;
13026;SDS011;6580;42.680;23.324;2023-09-07T16:57:02;7.03;;;5.32;;
13026;SDS011;6580;42.680;23.324;2023-09-07T16:59:49;5.85;;;5.30;;